sensor_id;sensor_type;location;lat;lon;timestamp;pressure;altitude;pressure_sealevel;temperature;humidity
50734;BME280;36701;51.798;19.474;2022-09-01T00:01:17;99378.22;;;16.31;100.00
50734;BME280;36701;51.798;19.474;2022-09-01T00:03:54;99380.88;;;16.37;100.00
50734;BME280;36701;51.798;19.474;2022-09-01T00:06:22;99376.53;;;16.41;100.00
50734;BME280;36701;51.798;19.474;2022-09-01T00:08:53;99368.69;;;16.29;100.00
50734;BME280;36701;51.798;19.474;2022-09-01T00:11:22;99383.03;;;16.45;100.00
50734;BME280;36701;51.798;19.474;2022-09-01T00:13:49;99286.59;;;15.87;100.00
50734;BME280;36701;51.798;19.474;2022-09-01T00:16:17;99382.28;;;16.29;100.00
50734;BME280;36701;51.798;19.474;2022-09-01T00:18:45;99302.59;;;15.89;100.00
50734;BME280;36701;51.798;19.474;2022-09-01T00:21:17;99337.59;;;16.01;100.00
50734;BME280;36701;51.798;19.474;2022-09-01T00:23:43;99349.53;;;16.05;100.00
50734;BME280;36701;51.798;19.474;2022-09-01T00:26:11;99372.84;;;16.21;100.00
50734;BME280;36701;51.798;19.474;2022-09-01T00:28:38;99378.34;;;16.01;100.00
50734;BME280;36701;51.798;19.474;2022-09-01T00:31:05;99389.94;;;16.22;100.00
50734;BME280;36701;51.798;19.474;2022-09-01T00:33:33;99382.56;;;16.32;100.00
50734;BME280;36701;51.798;19.474;2022-09-01T00:36:01;99380.41;;;16.29;100.00
50734;BME280;36701;51.798;19.474;2022-09-01T00:38:27;99384.16;;;16.33;100.00
50734;BME280;36701;51.798;19.474;2022-09-01T00:40:54;99388.56;;;16.29;100.00
50734;BME280;36701;51.798;19.474;2022-09-01T00:43:28;99371.75;;;16.17;100.00
50734;BME280;36701;51.798;19.474;2022-09-01T00:46:07;99303.44;;;15.84;100.00
50734;BME280;36701;51.798;19.474;2022-09-01T00:48:36;99341.97;;;15.91;100.00
50734;BME280;36701;51.798;19.474;2022-09-01T00:51:03;99342.84;;;15.82;100.00
50734;BME280;36701;51.798;19.474;2022-09-01T00:53:31;99379.41;;;16.05;100.00
50734;BME280;36701;51.798;19.474;2022-09-01T00:55:59;99343.41;;;15.58;100.00
50734;BME280;36701;51.798;19.474;2022-09-01T00:58:26;99380.59;;;15.78;100.00
50734;BME280;36701;51.798;19.474;2022-09-01T01:00:53;99340.09;;;15.71;100.00
50734;BME280;36701;51.798;19.474;2022-09-01T01:03:19;99280.78;;;15.39;100.00
50734;BME280;36701;51.798;19.474;2022-09-01T01:05:52;99337.69;;;15.59;100.00
50734;BME280;36701;51.798;19.474;2022-09-01T01:08:29;99330.69;;;15.43;100.00
50734;BME280;36701;51.798;19.474;2022-09-01T01:11:01;99383.81;;;15.65;100.00
50734;BME280;36701;51.798;19.474;2022-09-01T01:13:28;99363.47;;;15.57;100.00
50734;BME280;36701;51.798;19.474;2022-09-01T01:15:57;99371.09;;;15.55;100.00
50734;BME280;36701;51.798;19.474;2022-09-01T01:18:25;99370.84;;;15.51;100.00
50734;BME280;36701;51.798;19.474;2022-09-01T01:21:04;99378.13;;;15.66;100.00
50734;BME280;36701;51.798;19.474;2022-09-01T01:24:32;99344.78;;;15.35;100.00
50734;BME280;36701;51.798;19.474;2022-09-01T01:27:00;99371.91;;;15.50;100.00
50734;BME280;36701;51.798;19.474;2022-09-01T01:29:32;99342.34;;;15.33;100.00
50734;BME280;36701;51.798;19.474;2022-09-01T01:31:59;99378.41;;;15.59;100.00
50734;BME280;36701;51.798;19.474;2022-09-01T01:34:26;99344.28;;;15.28;100.00
50734;BME280;36701;51.798;19.474;2022-09-01T01:36:53;99384.37;;;15.61;100.00
50734;BME280;36701;51.798;19.474;2022-09-01T01:39:23;99380.06;;;15.60;100.00
50734;BME280;36701;51.798;19.474;2022-09-01T01:41:56;99351.84;;;15.36;100.00
50734;BME280;36701;51.798;19.474;2022-09-01T01:44:25;99333.97;;;15.24;100.00
50734;BME280;36701;51.798;19.474;2022-09-01T01:46:55;99296.03;;;14.99;100.00
50734;BME280;36701;51.798;19.474;2022-09-01T01:49:24;99370.84;;;15.51;100.00
50734;BME280;36701;51.798;19.474;2022-09-01T01:51:52;99367.31;;;15.46;100.00
50734;BME280;36701;51.798;19.474;2022-09-01T01:54:23;99357.25;;;15.56;100.00
50734;BME280;36701;51.798;19.474;2022-09-01T01:56:54;99365.91;;;15.58;100.00
50734;BME280;36701;51.798;19.474;2022-09-01T01:59:24;99361.06;;;15.50;100.00
50734;BME280;36701;51.798;19.474;2022-09-01T02:01:52;99315.53;;;15.21;100.00
50734;BME280;36701;51.798;19.474;2022-09-01T02:04:22;99326.38;;;15.16;100.00
50734;BME280;36701;51.798;19.474;2022-09-01T02:06:50;99323.13;;;15.14;100.00
50734;BME280;36701;51.798;19.474;2022-09-01T02:09:19;99323.13;;;15.19;100.00
50734;BME280;36701;51.798;19.474;2022-09-01T02:11:47;99356.19;;;15.42;100.00
50734;BME280;36701;51.798;19.474;2022-09-01T02:14:16;99359.97;;;15.41;100.00
50734;BME280;36701;51.798;19.474;2022-09-01T02:16:48;99358.38;;;15.40;100.00
50734;BME280;36701;51.798;19.474;2022-09-01T02:19:16;99355.13;;;15.28;100.00
50734;BME280;36701;51.798;19.474;2022-09-01T02:21:46;99317.72;;;14.99;100.00
50734;BME280;36701;51.798;19.474;2022-09-01T02:24:19;99316.63;;;15.05;100.00
50734;BME280;36701;51.798;19.474;2022-09-01T02:26:46;99358.34;;;15.35;100.00
50734;BME280;36701;51.798;19.474;2022-09-01T02:29:19;99346.44;;;15.15;100.00
50734;BME280;36701;51.798;19.474;2022-09-01T02:31:52;99293.84;;;14.75;100.00
50734;BME280;36701;51.798;19.474;2022-09-01T02:34:20;99318.81;;;14.87;100.00
50734;BME280;36701;51.798;19.474;2022-09-01T02:36:52;99279.72;;;14.52;100.00
50734;BME280;36701;51.798;19.474;2022-09-01T02:39:22;99322.59;;;14.76;100.00
50734;BME280;36701;51.798;19.474;2022-09-01T02:41:49;99258.59;;;14.39;100.00
50734;BME280;36701;51.798;19.474;2022-09-01T02:44:18;99356.22;;;15.01;100.00
50734;BME280;36701;51.798;19.474;2022-09-01T02:46:48;99351.88;;;14.95;100.00
50734;BME280;36701;51.798;19.474;2022-09-01T02:49:22;99357.00;;;14.96;100.00
50734;BME280;36701;51.798;19.474;2022-09-01T02:51:56;99362.44;;;14.91;100.00
50734;BME280;36701;51.798;19.474;2022-09-01T02:54:26;99367.87;;;14.91;100.00
50734;BME280;36701;51.798;19.474;2022-09-01T02:56:53;99365.97;;;14.86;100.00
50734;BME280;36701;51.798;19.474;2022-09-01T02:59:23;99361.06;;;14.78;100.00
50734;BME280;36701;51.798;19.474;2022-09-01T03:01:52;99366.50;;;14.83;100.00
50734;BME280;36701;51.798;19.474;2022-09-01T03:04:20;99362.97;;;14.78;100.00
50734;BME280;36701;51.798;19.474;2022-09-01T03:06:48;99364.88;;;14.82;100.00
50734;BME280;36701;51.798;19.474;2022-09-01T03:09:20;99364.06;;;14.71;100.00
50734;BME280;36701;51.798;19.474;2022-09-01T03:11:49;99367.00;;;14.60;100.00
50734;BME280;36701;51.798;19.474;2022-09-01T03:14:16;99365.06;;;14.50;100.00
50734;BME280;36701;51.798;19.474;2022-09-01T03:16:43;99363.72;;;14.47;100.00
50734;BME280;36701;51.798;19.474;2022-09-01T03:19:11;99363.94;;;14.41;100.00
50734;BME280;36701;51.798;19.474;2022-09-01T03:21:40;99360.16;;;14.37;100.00
50734;BME280;36701;51.798;19.474;2022-09-01T03:24:10;99337.09;;;14.19;100.00
50734;BME280;36701;51.798;19.474;2022-09-01T03:26:40;99354.72;;;14.31;100.00
50734;BME280;36701;51.798;19.474;2022-09-01T03:29:07;99372.91;;;14.46;100.00
50734;BME280;36701;51.798;19.474;2022-09-01T03:31:34;99363.66;;;14.27;100.00
50734;BME280;36701;51.798;19.474;2022-09-01T03:34:02;99362.53;;;14.23;100.00
50734;BME280;36701;51.798;19.474;2022-09-01T03:36:32;99299.63;;;13.90;100.00
50734;BME280;36701;51.798;19.474;2022-09-01T03:39:00;99317.22;;;13.97;100.00
50734;BME280;36701;51.798;19.474;2022-09-01T03:41:29;99357.09;;;14.12;100.00
50734;BME280;36701;51.798;19.474;2022-09-01T03:43:57;99359.22;;;14.10;100.00
50734;BME280;36701;51.798;19.474;2022-09-01T03:46:27;99371.09;;;13.94;100.00
50734;BME280;36701;51.798;19.474;2022-09-01T03:48:57;99324.59;;;13.54;100.00
50734;BME280;36701;51.798;19.474;2022-09-01T03:51:26;99365.88;;;13.77;100.00
50734;BME280;36701;51.798;19.474;2022-09-01T03:53:57;99366.59;;;13.67;100.00
50734;BME280;36701;51.798;19.474;2022-09-01T03:56:27;99368.25;;;13.73;100.00
50734;BME280;36701;51.798;19.474;2022-09-01T03:58:57;99344.38;;;13.60;100.00
50734;BME280;36701;51.798;19.474;2022-09-01T04:01:26;99344.81;;;13.41;100.00
50734;BME280;36701;51.798;19.474;2022-09-01T04:03:53;99341.53;;;13.34;100.00
50734;BME280;36701;51.798;19.474;2022-09-01T04:06:21;99374.06;;;13.50;100.00
50734;BME280;36701;51.798;19.474;2022-09-01T04:08:49;99385.38;;;13.41;100.00
50734;BME280;36701;51.798;19.474;2022-09-01T04:11:19;99374.28;;;13.38;100.00
50734;BME280;36701;51.798;19.474;2022-09-01T04:13:51;99333.47;;;13.07;100.00
50734;BME280;36701;51.798;19.474;2022-09-01T04:16:21;99344.59;;;13.16;100.00
50734;BME280;36701;51.798;19.474;2022-09-01T04:19:07;99339.19;;;13.16;100.00
50734;BME280;36701;51.798;19.474;2022-09-01T04:21:46;99374.06;;;13.50;100.00
50734;BME280;36701;51.798;19.474;2022-09-01T04:24:17;99347.75;;;13.35;100.00
50734;BME280;36701;51.798;19.474;2022-09-01T04:26:45;99297.13;;;12.93;100.00
50734;BME280;36701;51.798;19.474;2022-09-01T04:29:14;99378.38;;;13.46;100.00
50734;BME280;36701;51.798;19.474;2022-09-01T04:31:44;99373.00;;;13.51;100.00
50734;BME280;36701;51.798;19.474;2022-09-01T04:34:22;99378.34;;;13.40;100.00
50734;BME280;36701;51.798;19.474;2022-09-01T04:36:49;99378.88;;;13.37;100.00
50734;BME280;36701;51.798;19.474;2022-09-01T04:39:20;99350.09;;;13.26;100.00
50734;BME280;36701;51.798;19.474;2022-09-01T04:41:48;99372.94;;;13.40;100.00
50734;BME280;36701;51.798;19.474;2022-09-01T04:44:17;99379.88;;;13.31;100.00
50734;BME280;36701;51.798;19.474;2022-09-01T04:46:45;99318.44;;;12.89;100.00
50734;BME280;36701;51.798;19.474;2022-09-01T04:49:14;99380.41;;;13.28;100.00
50734;BME280;36701;51.798;19.474;2022-09-01T04:51:47;99381.44;;;13.22;100.00
50734;BME280;36701;51.798;19.474;2022-09-01T04:54:14;99284.22;;;12.67;100.00
50734;BME280;36701;51.798;19.474;2022-09-01T04:56:43;99383.78;;;13.40;100.00
50734;BME280;36701;51.798;19.474;2022-09-01T04:59:12;99348.97;;;13.22;100.00
50734;BME280;36701;51.798;19.474;2022-09-01T05:01:40;99389.25;;;13.51;100.00
50734;BME280;36701;51.798;19.474;2022-09-01T05:04:14;99392.59;;;13.68;100.00
50734;BME280;36701;51.798;19.474;2022-09-01T05:06:50;99341.06;;;13.48;100.00
50734;BME280;36701;51.798;19.474;2022-09-01T05:09:19;99371.47;;;13.65;100.00
50734;BME280;36701;51.798;19.474;2022-09-01T05:11:46;99311.81;;;13.39;100.00
50734;BME280;36701;51.798;19.474;2022-09-01T05:14:14;99342.84;;;13.74;100.00
50734;BME280;36701;51.798;19.474;2022-09-01T05:16:44;99383.44;;;13.74;100.00
50734;BME280;36701;51.798;19.474;2022-09-01T05:19:12;99391.87;;;13.83;100.00
50734;BME280;36701;51.798;19.474;2022-09-01T05:21:44;99341.78;;;13.75;100.00
50734;BME280;36701;51.798;19.474;2022-09-01T05:24:20;99384.63;;;13.99;100.00
50734;BME280;36701;51.798;19.474;2022-09-01T05:26:47;99340.63;;;13.61;100.00
50734;BME280;36701;51.798;19.474;2022-09-01T05:29:16;99349.84;;;13.70;100.00
50734;BME280;36701;51.798;19.474;2022-09-01T05:31:45;99374.28;;;13.86;100.00
50734;BME280;36701;51.798;19.474;2022-09-01T05:34:13;99340.00;;;14.02;100.00
50734;BME280;36701;51.798;19.474;2022-09-01T05:36:45;99296.91;;;13.90;100.00
50734;BME280;36701;51.798;19.474;2022-09-01T05:39:16;99372.38;;;14.49;100.00
50734;BME280;36701;51.798;19.474;2022-09-01T05:41:43;99340.25;;;13.95;100.00
50734;BME280;36701;51.798;19.474;2022-09-01T05:44:11;99382.16;;;14.56;100.00
50734;BME280;36701;51.798;19.474;2022-09-01T05:46:40;99337.16;;;14.44;100.00
50734;BME280;36701;51.798;19.474;2022-09-01T05:49:10;99332.06;;;14.79;100.00
50734;BME280;36701;51.798;19.474;2022-09-01T05:51:41;99349.09;;;14.59;100.00
50734;BME280;36701;51.798;19.474;2022-09-01T05:54:08;99384.37;;;14.64;100.00
50734;BME280;36701;51.798;19.474;2022-09-01T05:56:38;99345.22;;;14.29;100.00
50734;BME280;36701;51.798;19.474;2022-09-01T05:59:06;99350.69;;;14.39;100.00
50734;BME280;36701;51.798;19.474;2022-09-01T06:01:34;99341.16;;;14.26;100.00
50734;BME280;36701;51.798;19.474;2022-09-01T06:04:04;99351.41;;;14.09;100.00
50734;BME280;36701;51.798;19.474;2022-09-01T06:06:41;99369.13;;;14.58;100.00
50734;BME280;36701;51.798;19.474;2022-09-01T06:09:14;99347.94;;;14.34;100.00
50734;BME280;36701;51.798;19.474;2022-09-01T06:11:44;99345.22;;;14.29;100.00
50734;BME280;36701;51.798;19.474;2022-09-01T06:14:13;99366.41;;;14.52;100.00
50734;BME280;36701;51.798;19.474;2022-09-01T06:16:42;99358.25;;;14.42;100.00
50734;BME280;36701;51.798;19.474;2022-09-01T06:19:10;99381.66;;;14.69;100.00
50734;BME280;36701;51.798;19.474;2022-09-01T06:21:40;99387.66;;;14.76;100.00
50734;BME280;36701;51.798;19.474;2022-09-01T06:24:07;99383.06;;;14.92;100.00
50734;BME280;36701;51.798;19.474;2022-09-01T06:26:35;99386.03;;;15.06;100.00
50734;BME280;36701;51.798;19.474;2022-09-01T06:29:05;99332.00;;;14.58;100.00
50734;BME280;36701;51.798;19.474;2022-09-01T06:31:42;99390.66;;;15.16;100.00
50734;BME280;36701;51.798;19.474;2022-09-01T06:34:11;99358.91;;;15.06;100.00
50734;BME280;36701;51.798;19.474;2022-09-01T06:36:45;99355.38;;;15.31;100.00
50734;BME280;36701;51.798;19.474;2022-09-01T06:39:14;99363.78;;;15.40;100.00
50734;BME280;36701;51.798;19.474;2022-09-01T06:41:47;99377.91;;;15.32;100.00
50734;BME280;36701;51.798;19.474;2022-09-01T06:44:18;99365.41;;;15.20;100.00
50734;BME280;36701;51.798;19.474;2022-09-01T06:46:49;99393.06;;;15.58;100.00
50734;BME280;36701;51.798;19.474;2022-09-01T06:49:18;99406.06;;;15.67;100.00
50734;BME280;36701;51.798;19.474;2022-09-01T06:51:46;99368.66;;;15.33;100.00
50734;BME280;36701;51.798;19.474;2022-09-01T06:54:16;99372.44;;;15.52;100.00
50734;BME280;36701;51.798;19.474;2022-09-01T06:56:47;99379.50;;;15.53;100.00
50734;BME280;36701;51.798;19.474;2022-09-01T06:59:13;99372.94;;;15.70;100.00
50734;BME280;36701;51.798;19.474;2022-09-01T07:01:42;99314.44;;;15.12;100.00
50734;BME280;36701;51.798;19.474;2022-09-01T07:04:08;99370.81;;;15.61;100.00
50734;BME280;36701;51.798;19.474;2022-09-01T07:06:38;99355.09;;;15.48;100.00
50734;BME280;36701;51.798;19.474;2022-09-01T07:09:08;99369.19;;;15.60;100.00
50734;BME280;36701;51.798;19.474;2022-09-01T07:11:34;99380.59;;;15.57;100.00
50734;BME280;36701;51.798;19.474;2022-09-01T07:14:05;99393.59;;;15.81;100.00
50734;BME280;36701;51.798;19.474;2022-09-01T07:16:35;99379.75;;;15.57;100.00
50734;BME280;36701;51.798;19.474;2022-09-01T07:19:06;99349.72;;;15.17;100.00
50734;BME280;36701;51.798;19.474;2022-09-01T07:21:41;99426.12;;;15.96;100.00
50734;BME280;36701;51.798;19.474;2022-09-01T07:24:10;99393.88;;;15.49;100.00
50734;BME280;36701;51.798;19.474;2022-09-01T07:26:38;99395.25;;;15.36;100.00
50734;BME280;36701;51.798;19.474;2022-09-01T07:29:06;99376.00;;;15.32;100.00
50734;BME280;36701;51.798;19.474;2022-09-01T07:31:38;99425.62;;;15.69;100.00
50734;BME280;36701;51.798;19.474;2022-09-01T07:34:09;99345.87;;;15.39;100.00
50734;BME280;36701;51.798;19.474;2022-09-01T07:36:40;99424.25;;;15.92;100.00
50734;BME280;36701;51.798;19.474;2022-09-01T07:39:14;99389.81;;;15.77;100.00
50734;BME280;36701;51.798;19.474;2022-09-01T07:41:42;99431.56;;;15.96;100.00
50734;BME280;36701;51.798;19.474;2022-09-01T07:44:15;99421.25;;;16.04;100.00
50734;BME280;36701;51.798;19.474;2022-09-01T07:46:44;99421.78;;;15.95;100.00
50734;BME280;36701;51.798;19.474;2022-09-01T07:49:17;99406.34;;;15.91;100.00
50734;BME280;36701;51.798;19.474;2022-09-01T07:51:44;99407.69;;;15.93;100.00
50734;BME280;36701;51.798;19.474;2022-09-01T07:54:15;99413.31;;;16.23;100.00
50734;BME280;36701;51.798;19.474;2022-09-01T07:56:42;99415.22;;;16.17;100.00
50734;BME280;36701;51.798;19.474;2022-09-01T07:59:10;99409.78;;;16.17;100.00
50734;BME280;36701;51.798;19.474;2022-09-01T08:01:37;99418.34;;;16.50;100.00
50734;BME280;36701;51.798;19.474;2022-09-01T08:04:04;99398.47;;;15.89;100.00
50734;BME280;36701;51.798;19.474;2022-09-01T08:06:30;99343.88;;;15.86;100.00
50734;BME280;36701;51.798;19.474;2022-09-01T08:08:59;99426.97;;;16.62;100.00
50734;BME280;36701;51.798;19.474;2022-09-01T08:11:29;99396.34;;;16.96;100.00
50734;BME280;36701;51.798;19.474;2022-09-01T08:13:56;99333.50;;;16.58;100.00
50734;BME280;36701;51.798;19.474;2022-09-01T08:16:33;99388.19;;;16.46;100.00
50734;BME280;36701;51.798;19.474;2022-09-01T08:19:00;99400.78;;;16.82;100.00
50734;BME280;36701;51.798;19.474;2022-09-01T08:21:27;99423.44;;;17.12;100.00
50734;BME280;36701;51.798;19.474;2022-09-01T08:23:54;99402.88;;;16.95;100.00
50734;BME280;36701;51.798;19.474;2022-09-01T08:26:23;99389.34;;;16.85;100.00
50734;BME280;36701;51.798;19.474;2022-09-01T08:28:51;99415.69;;;16.95;100.00
50734;BME280;36701;51.798;19.474;2022-09-01T08:31:22;99420.28;;;16.99;100.00
50734;BME280;36701;51.798;19.474;2022-09-01T08:33:50;99424.25;;;17.12;100.00
50734;BME280;36701;51.798;19.474;2022-09-01T08:36:17;99426.03;;;17.27;100.00
50734;BME280;36701;51.798;19.474;2022-09-01T08:38:44;99410.50;;;17.28;100.00
50734;BME280;36701;51.798;19.474;2022-09-01T08:44:40;99425.31;;;17.51;100.00
50734;BME280;36701;51.798;19.474;2022-09-01T08:47:06;99388.44;;;17.34;100.00
50734;BME280;36701;51.798;19.474;2022-09-01T08:49:35;99429.16;;;17.45;100.00
50734;BME280;36701;51.798;19.474;2022-09-01T08:52:30;99409.88;;;17.41;100.00
50734;BME280;36701;51.798;19.474;2022-09-01T08:55:09;99429.34;;;17.88;100.00
50734;BME280;36701;51.798;19.474;2022-09-01T08:57:41;99423.66;;;17.50;100.00
50734;BME280;36701;51.798;19.474;2022-09-01T09:00:33;99425.56;;;17.78;100.00
50734;BME280;36701;51.798;19.474;2022-09-01T09:11:05;99407.34;;;17.50;100.00
50734;BME280;36701;51.798;19.474;2022-09-01T09:16:24;99421.94;;;18.18;100.00
50734;BME280;36701;51.798;19.474;2022-09-01T09:19:06;99410.66;;;18.24;100.00
50734;BME280;36701;51.798;19.474;2022-09-01T09:21:37;99347.59;;;17.64;100.00
50734;BME280;36701;51.798;19.474;2022-09-01T09:26:31;99420.78;;;18.24;100.00
50734;BME280;36701;51.798;19.474;2022-09-01T09:28:58;99375.06;;;18.15;100.00
50734;BME280;36701;51.798;19.474;2022-09-01T09:33:55;99417.66;;;18.55;100.00
50734;BME280;36701;51.798;19.474;2022-09-01T09:36:34;99382.84;;;18.27;100.00
50734;BME280;36701;51.798;19.474;2022-09-01T09:39:13;99421.69;;;18.38;100.00
50734;BME280;36701;51.798;19.474;2022-09-01T09:41:43;99378.06;;;18.38;100.00
50734;BME280;36701;51.798;19.474;2022-09-01T09:44:32;99413.00;;;18.74;99.50
50734;BME280;36701;51.798;19.474;2022-09-01T09:47:00;99385.78;;;18.31;91.15
50734;BME280;36701;51.798;19.474;2022-09-01T09:49:32;99403.50;;;18.52;96.07
50734;BME280;36701;51.798;19.474;2022-09-01T09:54:37;99398.72;;;18.20;100.00
50734;BME280;36701;51.798;19.474;2022-09-01T09:59:37;99385.66;;;18.60;100.00
50734;BME280;36701;51.798;19.474;2022-09-01T10:04:42;99416.41;;;18.66;100.00
50734;BME280;36701;51.798;19.474;2022-09-01T10:07:28;99392.81;;;18.13;100.00
50734;BME280;36701;51.798;19.474;2022-09-01T10:09:57;99421.00;;;18.03;100.00
50734;BME280;36701;51.798;19.474;2022-09-01T10:12:26;99377.59;;;17.58;100.00
50734;BME280;36701;51.798;19.474;2022-09-01T10:14:59;99378.59;;;17.38;100.00
50734;BME280;36701;51.798;19.474;2022-09-01T10:17:37;99379.53;;;17.53;100.00
50734;BME280;36701;51.798;19.474;2022-09-01T10:20:08;99394.31;;;17.76;100.00
50734;BME280;36701;51.798;19.474;2022-09-01T10:22:38;99360.47;;;18.06;100.00
50734;BME280;36701;51.798;19.474;2022-09-01T10:25:06;99405.50;;;18.66;100.00
50734;BME280;36701;51.798;19.474;2022-09-01T10:27:39;99399.53;;;18.64;100.00
50734;BME280;36701;51.798;19.474;2022-09-01T10:30:12;99358.03;;;18.67;100.00
50734;BME280;36701;51.798;19.474;2022-09-01T10:32:43;99402.91;;;19.13;97.79
50734;BME280;36701;51.798;19.474;2022-09-01T10:35:18;99395.62;;;19.41;97.48
50734;BME280;36701;51.798;19.474;2022-09-01T10:37:46;99351.03;;;18.61;76.60
50734;BME280;36701;51.798;19.474;2022-09-01T10:43:26;99390.09;;;18.56;82.37
50734;BME280;36701;51.798;19.474;2022-09-01T10:45:55;99407.97;;;18.43;88.18
50734;BME280;36701;51.798;19.474;2022-09-01T10:50:52;99408.69;;;18.06;100.00
50734;BME280;36701;51.798;19.474;2022-09-01T11:02:13;99419.22;;;18.61;100.00
50734;BME280;36701;51.798;19.474;2022-09-01T11:13:42;99419.25;;;18.99;96.63
50734;BME280;36701;51.798;19.474;2022-09-01T11:16:25;99414.47;;;19.23;99.05
50734;BME280;36701;51.798;19.474;2022-09-01T11:18:54;99415.63;;;18.84;98.79
50734;BME280;36701;51.798;19.474;2022-09-01T11:21:29;99386.91;;;18.68;96.27
50734;BME280;36701;51.798;19.474;2022-09-01T11:27:06;99416.16;;;18.86;100.00
50734;BME280;36701;51.798;19.474;2022-09-01T11:32:18;99424.03;;;18.88;100.00
50734;BME280;36701;51.798;19.474;2022-09-01T11:34:48;99418.53;;;18.69;100.00
50734;BME280;36701;51.798;19.474;2022-09-01T11:37:19;99414.47;;;18.47;100.00
50734;BME280;36701;51.798;19.474;2022-09-01T11:39:54;99414.37;;;18.33;100.00
50734;BME280;36701;51.798;19.474;2022-09-01T11:45:22;99313.03;;;18.07;100.00
50734;BME280;36701;51.798;19.474;2022-09-01T11:48:10;99406.53;;;19.08;100.00
50734;BME280;36701;51.798;19.474;2022-09-01T11:50:40;99403.50;;;19.10;100.00
50734;BME280;36701;51.798;19.474;2022-09-01T11:53:13;99407.66;;;19.40;100.00
50734;BME280;36701;51.798;19.474;2022-09-01T11:55:46;99374.47;;;19.33;96.70
50734;BME280;36701;51.798;19.474;2022-09-01T11:58:30;99370.19;;;19.59;94.83
50734;BME280;36701;51.798;19.474;2022-09-01T12:03:42;99408.00;;;20.27;88.88
50734;BME280;36701;51.798;19.474;2022-09-01T12:06:11;99358.97;;;19.75;89.19
50734;BME280;36701;51.798;19.474;2022-09-01T12:08:40;99387.41;;;19.74;88.95
50734;BME280;36701;51.798;19.474;2022-09-01T12:11:17;99394.22;;;19.90;91.45
50734;BME280;36701;51.798;19.474;2022-09-01T12:14:02;99363.84;;;19.78;88.23
50734;BME280;36701;51.798;19.474;2022-09-01T12:16:31;99357.38;;;20.02;84.78
50734;BME280;36701;51.798;19.474;2022-09-01T12:18:59;99353.94;;;19.82;89.17
50734;BME280;36701;51.798;19.474;2022-09-01T12:21:35;99350.38;;;19.68;92.51
50734;BME280;36701;51.798;19.474;2022-09-01T12:24:21;99310.47;;;19.25;87.24
50734;BME280;36701;51.798;19.474;2022-09-01T12:26:48;99353.94;;;19.82;91.52
50734;BME280;36701;51.798;19.474;2022-09-01T12:29:16;99389.94;;;20.40;89.65
50734;BME280;36701;51.798;19.474;2022-09-01T12:31:47;99365.78;;;20.19;81.14
50734;BME280;36701;51.798;19.474;2022-09-01T12:34:44;99389.78;;;20.22;80.89
50734;BME280;36701;51.798;19.474;2022-09-01T12:39:45;99376.91;;;20.87;81.70
50734;BME280;36701;51.798;19.474;2022-09-01T12:44:54;99381.31;;;21.19;70.41
50734;BME280;36701;51.798;19.474;2022-09-01T12:50:04;99372.66;;;21.80;73.83
50734;BME280;36701;51.798;19.474;2022-09-01T12:52:33;99365.31;;;21.35;72.58
50734;BME280;36701;51.798;19.474;2022-09-01T13:07:48;99326.19;;;18.81;96.73
50734;BME280;36701;51.798;19.474;2022-09-01T13:10:15;99369.69;;;18.92;100.00
50734;BME280;36701;51.798;19.474;2022-09-01T13:12:42;99368.94;;;18.67;100.00
50734;BME280;36701;51.798;19.474;2022-09-01T13:15:09;99254.34;;;17.96;100.00
50734;BME280;36701;51.798;19.474;2022-09-01T13:17:43;99322.66;;;18.24;100.00
50734;BME280;36701;51.798;19.474;2022-09-01T13:20:10;99332.34;;;18.30;100.00
50734;BME280;36701;51.798;19.474;2022-09-01T13:22:37;99285.78;;;17.88;100.00
50734;BME280;36701;51.798;19.474;2022-09-01T13:25:04;99333.00;;;18.03;100.00
50734;BME280;36701;51.798;19.474;2022-09-01T13:27:39;99368.91;;;18.29;100.00
50734;BME280;36701;51.798;19.474;2022-09-01T13:30:10;99359.75;;;18.20;100.00
50734;BME280;36701;51.798;19.474;2022-09-01T13:32:38;99329.31;;;18.12;100.00
50734;BME280;36701;51.798;19.474;2022-09-01T13:35:05;99363.91;;;18.36;100.00
50734;BME280;36701;51.798;19.474;2022-09-01T13:37:32;99367.59;;;18.45;100.00
50734;BME280;36701;51.798;19.474;2022-09-01T13:39:58;99324.53;;;18.04;100.00
50734;BME280;36701;51.798;19.474;2022-09-01T13:42:25;99329.94;;;18.09;100.00
50734;BME280;36701;51.798;19.474;2022-09-01T13:44:51;99345.09;;;18.15;100.00
50734;BME280;36701;51.798;19.474;2022-09-01T13:47:18;99368.81;;;18.15;100.00
50734;BME280;36701;51.798;19.474;2022-09-01T13:49:44;99357.22;;;18.04;100.00
50734;BME280;36701;51.798;19.474;2022-09-01T13:52:11;99319.44;;;17.73;100.00
50734;BME280;36701;51.798;19.474;2022-09-01T13:54:38;99378.31;;;18.18;100.00
50734;BME280;36701;51.798;19.474;2022-09-01T13:57:04;99350.81;;;18.38;100.00
50734;BME280;36701;51.798;19.474;2022-09-01T13:59:31;99326.19;;;18.62;100.00
50734;BME280;36701;51.798;19.474;2022-09-01T14:01:58;99363.09;;;19.12;100.00
50734;BME280;36701;51.798;19.474;2022-09-01T14:04:26;99370.25;;;19.54;100.00
50734;BME280;36701;51.798;19.474;2022-09-01T14:06:52;99335.06;;;19.53;100.00
50734;BME280;36701;51.798;19.474;2022-09-01T14:09:20;99357.00;;;19.94;96.33
50734;BME280;36701;51.798;19.474;2022-09-01T14:11:46;99308.47;;;19.58;94.86
50734;BME280;36701;51.798;19.474;2022-09-01T14:14:13;99329.72;;;19.01;99.77
50734;BME280;36701;51.798;19.474;2022-09-01T14:16:39;99332.72;;;18.80;100.00
50734;BME280;36701;51.798;19.474;2022-09-01T14:19:05;99336.84;;;19.30;100.00